PWSweather.com
Personal Weather Stations
Station Observations
CW4114
Near Downtown, Rogers City, MI 49779

Near DowntownRogers City, MI 49779

Lat: 45.417443, Lon: -83.810642

Elevation: 605

Station Type: Davis Vantage Pro2 w/Solar

Latest ConditionsUpdated 9:20:36 AM EST Sunday, Dec 21, 2014
Currently Today's Max Today's Min Today's Average
Temperature 24.6°F-4.1°C 24.6°F-4.1°C 17.4°F-8.1°C 20.4°F-6.4°C
Dew Point 22.5°F-5.3°C 22.5°F-5.3°C 15.8°F-9.0°C 18.8°F-7.3°C
Winds 4.0 mph SW6.4 kmh SW 4.0 mph S6.4 kmh S - 1.5 mph 2.4 kmh
Wind Gusts 6.9 mph11.1 kmh 8.1 mph13.0 kmh - -
Humidity 91% 95% 91% 93%
Pressure 30.29 in1025.7 mb 30.32 in1026.8 mb 30.29 in1025.7 mb -
Hour Temp Dew Point Humidity Winds Wind Gusts Pressure Precip Precip Rate Daily Precip Total
09:20 AM 24.6°F-4.1°C 22.5°F-5.3°C 91% 4.0 mph SW6.4 kmh SW 6.9 mph11.1 kmh 30.29 in1025.7 mb 0.00 in0.0 mm 0.00 in/hr0.0 mm/hr 0.00 in0.0 mm
09:15 AM 24.4°F-4.2°C 22.3°F-5.4°C 91% 4.0 mph S6.4 kmh S 6.9 mph11.1 kmh 30.29 in1025.7 mb 0.00 in0.0 mm 0.00 in/hr0.0 mm/hr 0.00 in0.0 mm
09:10 AM 24.4°F-4.2°C 22.5°F-5.3°C 92% 4.0 mph SW6.4 kmh SW 8.1 mph13.0 kmh 30.29 in1025.7 mb 0.00 in0.0 mm 0.00 in/hr0.0 mm/hr 0.00 in0.0 mm
09:05 AM 24.3°F-4.3°C 22.3°F-5.4°C 92% 4.0 mph SW6.4 kmh SW 8.1 mph13.0 kmh 30.29 in1025.7 mb 0.00 in0.0 mm 0.00 in/hr0.0 mm/hr 0.00 in0.0 mm
09:00 AM 24.1°F-4.4°C 22.1°F-5.5°C 92% 4.0 mph SSW6.4 kmh SSW 8.1 mph13.0 kmh 30.29 in1025.7 mb 0.00 in0.0 mm 0.00 in/hr0.0 mm/hr 0.00 in0.0 mm
08:55 AM 23.9°F-4.5°C 21.9°F-5.6°C 92% 2.9 mph SW4.7 kmh SW 7.0 mph11.3 kmh 30.29 in1025.7 mb 0.00 in0.0 mm 0.00 in/hr0.0 mm/hr 0.00 in0.0 mm
08:50 AM 23.7°F-4.6°C 21.7°F-5.7°C 92% 2.0 mph SW3.2 kmh SW 4.9 mph7.9 kmh 30.29 in1025.7 mb 0.00 in0.0 mm 0.00 in/hr0.0 mm/hr 0.00 in0.0 mm
08:45 AM 23.5°F-4.7°C 21.6°F-5.8°C 92% 0.9 mph SSW1.4 kmh SSW 4.9 mph7.9 kmh 30.29 in1025.7 mb 0.00 in0.0 mm 0.00 in/hr0.0 mm/hr 0.00 in0.0 mm
08:40 AM 23.4°F-4.8°C 21.4°F-5.9°C 92% 2.0 mph S3.2 kmh S 4.9 mph7.9 kmh 30.29 in1025.7 mb 0.00 in0.0 mm 0.00 in/hr0.0 mm/hr 0.00 in0.0 mm
08:35 AM 23.2°F-4.9°C 21.2°F-6.0°C 92% 2.9 mph SW4.7 kmh SW 4.9 mph7.9 kmh 30.29 in1025.7 mb 0.00 in0.0 mm 0.00 in/hr0.0 mm/hr 0.00 in0.0 mm
08:30 AM 23.0°F-5.0°C 21.0°F-6.1°C 92% 2.9 mph SW4.7 kmh SW 6.0 mph9.7 kmh 30.29 in1025.7 mb 0.00 in0.0 mm 0.00 in/hr0.0 mm/hr 0.00 in0.0 mm
08:25 AM 22.8°F-5.1°C 20.8°F-6.2°C 92% 2.0 mph SSW3.2 kmh SSW 4.9 mph7.9 kmh 30.29 in1025.7 mb 0.00 in0.0 mm 0.00 in/hr0.0 mm/hr 0.00 in0.0 mm
08:20 AM 22.6°F-5.2°C 20.7°F-6.3°C 92% 2.0 mph S3.2 kmh S 4.0 mph6.4 kmh 30.29 in1025.7 mb 0.00 in0.0 mm 0.00 in/hr0.0 mm/hr 0.00 in0.0 mm
08:15 AM 22.5°F-5.3°C 20.7°F-6.3°C 93% 2.0 mph S3.2 kmh S 4.0 mph6.4 kmh 30.29 in1025.7 mb 0.00 in0.0 mm 0.00 in/hr0.0 mm/hr 0.00 in0.0 mm
08:10 AM 22.1°F-5.5°C 20.3°F-6.5°C 93% 0.9 mph S1.4 kmh S 4.9 mph7.9 kmh 30.29 in1025.7 mb 0.00 in0.0 mm 0.00 in/hr0.0 mm/hr 0.00 in0.0 mm
08:05 AM 21.7°F-5.7°C 20.1°F-6.6°C 93% Calm Calm 2.0 mph3.2 kmh 30.29 in1025.7 mb 0.00 in0.0 mm 0.00 in/hr0.0 mm/hr 0.00 in0.0 mm
08:00 AM 21.7°F-5.7°C 20.1°F-6.6°C 93% 0.9 mph SSW1.4 kmh SSW 2.0 mph3.2 kmh 30.29 in1025.7 mb 0.00 in0.0 mm 0.00 in/hr0.0 mm/hr 0.00 in0.0 mm
07:55 AM 21.6°F-5.8°C 19.9°F-6.7°C 93% 0.9 mph SSW1.4 kmh SSW 2.0 mph3.2 kmh 30.29 in1025.7 mb 0.00 in0.0 mm 0.00 in/hr0.0 mm/hr 0.00 in0.0 mm
07:50 AM 21.4°F-5.9°C 19.8°F-6.8°C 93% Calm Calm 2.0 mph3.2 kmh 30.30 in1026.1 mb 0.00 in0.0 mm 0.00 in/hr0.0 mm/hr 0.00 in0.0 mm
07:45 AM 21.0°F-6.1°C 19.4°F-7.0°C 93% Calm Calm 0.9 mph1.4 kmh 30.30 in1026.1 mb 0.00 in0.0 mm 0.00 in/hr0.0 mm/hr 0.00 in0.0 mm
07:40 AM 20.8°F-6.2°C 19.2°F-7.1°C 93% Calm Calm -- 30.30 in1026.1 mb 0.00 in0.0 mm 0.00 in/hr0.0 mm/hr 0.00 in0.0 mm
07:35 AM 20.8°F-6.2°C 19.2°F-7.1°C 93% Calm Calm 2.0 mph3.2 kmh 30.30 in1026.1 mb 0.00 in0.0 mm 0.00 in/hr0.0 mm/hr 0.00 in0.0 mm
07:30 AM 20.7°F-6.3°C 19.0°F-7.2°C 93% 0.9 mph SW1.4 kmh SW 2.0 mph3.2 kmh 30.30 in1026.1 mb 0.00 in0.0 mm 0.00 in/hr0.0 mm/hr 0.00 in0.0 mm
07:25 AM 20.7°F-6.3°C 18.7°F-7.4°C 92% 0.9 mph SSW1.4 kmh SSW 2.0 mph3.2 kmh 30.30 in1026.1 mb 0.00 in0.0 mm 0.00 in/hr0.0 mm/hr 0.00 in0.0 mm
07:20 AM 20.7°F-6.3°C 18.7°F-7.4°C 92% 0.9 mph SW1.4 kmh SW 2.0 mph3.2 kmh 30.30 in1026.1 mb 0.00 in0.0 mm 0.00 in/hr0.0 mm/hr 0.00 in0.0 mm
07:15 AM 20.7°F-6.3°C 18.7°F-7.4°C 92% 0.9 mph SW1.4 kmh SW 2.9 mph4.7 kmh 30.30 in1026.1 mb 0.00 in0.0 mm 0.00 in/hr0.0 mm/hr 0.00 in0.0 mm
07:10 AM 20.7°F-6.3°C 18.7°F-7.4°C 92% 2.0 mph WSW3.2 kmh WSW 2.9 mph4.7 kmh 30.30 in1026.1 mb 0.00 in0.0 mm 0.00 in/hr0.0 mm/hr 0.00 in0.0 mm
07:05 AM 20.5°F-6.4°C 18.9°F-7.3°C 93% 2.9 mph SW4.7 kmh SW 4.9 mph7.9 kmh 30.30 in1026.1 mb 0.00 in0.0 mm 0.00 in/hr0.0 mm/hr 0.00 in0.0 mm
07:00 AM 20.5°F-6.4°C 18.9°F-7.3°C 93% 2.9 mph SW4.7 kmh SW 6.9 mph11.1 kmh 30.30 in1026.1 mb 0.00 in0.0 mm 0.00 in/hr0.0 mm/hr 0.00 in0.0 mm
06:55 AM 20.3°F-6.5°C 18.7°F-7.4°C 93% 2.9 mph SW4.7 kmh SW 6.9 mph11.1 kmh 30.30 in1026.1 mb 0.00 in0.0 mm 0.00 in/hr0.0 mm/hr 0.00 in0.0 mm
06:50 AM 20.1°F-6.6°C 18.5°F-7.5°C 93% 2.9 mph SSW4.7 kmh SSW 6.9 mph11.1 kmh 30.30 in1026.1 mb 0.00 in0.0 mm 0.00 in/hr0.0 mm/hr 0.00 in0.0 mm
06:45 AM 19.9°F-6.7°C 18.3°F-7.6°C 93% 2.9 mph SSW4.7 kmh SSW 6.0 mph9.7 kmh 30.30 in1026.1 mb 0.00 in0.0 mm 0.00 in/hr0.0 mm/hr 0.00 in0.0 mm
06:40 AM 19.9°F-6.7°C 18.3°F-7.6°C 93% 2.9 mph SW4.7 kmh SW 4.0 mph6.4 kmh 30.30 in1026.1 mb 0.00 in0.0 mm 0.00 in/hr0.0 mm/hr 0.00 in0.0 mm
06:35 AM 19.9°F-6.7°C 18.3°F-7.6°C 93% 2.9 mph SW4.7 kmh SW 4.9 mph7.9 kmh 30.31 in1026.4 mb 0.00 in0.0 mm 0.00 in/hr0.0 mm/hr 0.00 in0.0 mm
06:30 AM 19.8°F-6.8°C 18.1°F-7.7°C 93% 2.9 mph SW4.7 kmh SW 4.9 mph7.9 kmh 30.30 in1026.1 mb 0.00 in0.0 mm 0.00 in/hr0.0 mm/hr 0.00 in0.0 mm
06:25 AM 19.8°F-6.8°C 18.1°F-7.7°C 93% 2.0 mph SW3.2 kmh SW 4.9 mph7.9 kmh 30.30 in1026.1 mb 0.00 in0.0 mm 0.00 in/hr0.0 mm/hr 0.00 in0.0 mm
06:20 AM 19.8°F-6.8°C 18.1°F-7.7°C 93% 2.0 mph SW3.2 kmh SW 4.9 mph7.9 kmh 30.31 in1026.4 mb 0.00 in0.0 mm 0.00 in/hr0.0 mm/hr 0.00 in0.0 mm
06:15 AM 19.8°F-6.8°C 18.3°F-7.6°C 94% 0.9 mph WSW1.4 kmh WSW 4.9 mph7.9 kmh 30.30 in1026.1 mb 0.00 in0.0 mm 0.00 in/hr0.0 mm/hr 0.00 in0.0 mm
06:10 AM 19.8°F-6.8°C 18.3°F-7.6°C 94% 0.9 mph WSW1.4 kmh WSW 2.9 mph4.7 kmh 30.30 in1026.1 mb 0.00 in0.0 mm 0.00 in/hr0.0 mm/hr 0.00 in0.0 mm
06:05 AM 19.8°F-6.8°C 18.3°F-7.6°C 94% 0.9 mph WSW1.4 kmh WSW 2.9 mph4.7 kmh 30.30 in1026.1 mb 0.00 in0.0 mm 0.00 in/hr0.0 mm/hr 0.00 in0.0 mm
06:00 AM 19.8°F-6.8°C 18.5°F-7.5°C 95% 0.9 mph WSW1.4 kmh WSW 2.0 mph3.2 kmh 30.30 in1026.1 mb 0.00 in0.0 mm 0.00 in/hr0.0 mm/hr 0.00 in0.0 mm
05:55 AM 19.6°F-6.9°C 18.3°F-7.6°C 95% 2.0 mph SW3.2 kmh SW 4.0 mph6.4 kmh 30.30 in1026.1 mb 0.00 in0.0 mm 0.00 in/hr0.0 mm/hr 0.00 in0.0 mm
05:50 AM 19.2°F-7.1°C 18.0°F-7.8°C 95% 0.9 mph SW1.4 kmh SW 2.9 mph4.7 kmh 30.30 in1026.1 mb 0.00 in0.0 mm 0.00 in/hr0.0 mm/hr 0.00 in0.0 mm
05:45 AM 19.0°F-7.2°C 17.8°F-7.9°C 95% 0.9 mph SW1.4 kmh SW 2.9 mph4.7 kmh 30.30 in1026.1 mb 0.00 in0.0 mm 0.00 in/hr0.0 mm/hr 0.00 in0.0 mm
05:40 AM 19.0°F-7.2°C 17.8°F-7.9°C 95% 0.9 mph SW1.4 kmh SW 2.9 mph4.7 kmh 30.30 in1026.1 mb 0.00 in0.0 mm 0.00 in/hr0.0 mm/hr 0.00 in0.0 mm
05:35 AM 18.9°F-7.3°C 17.6°F-8.0°C 95% 2.0 mph SW3.2 kmh SW 4.0 mph6.4 kmh 30.30 in1026.1 mb 0.00 in0.0 mm 0.00 in/hr0.0 mm/hr 0.00 in0.0 mm
05:30 AM 18.7°F-7.4°C 17.4°F-8.1°C 95% 2.9 mph SSW4.7 kmh SSW 4.9 mph7.9 kmh 30.30 in1026.1 mb 0.00 in0.0 mm 0.00 in/hr0.0 mm/hr 0.00 in0.0 mm
05:25 AM 18.7°F-7.4°C 17.4°F-8.1°C 95% 2.9 mph SW4.7 kmh SW 4.9 mph7.9 kmh 30.30 in1026.1 mb 0.00 in0.0 mm 0.00 in/hr0.0 mm/hr 0.00 in0.0 mm
05:20 AM 18.3°F-7.6°C 17.1°F-8.3°C 95% 2.9 mph SSW4.7 kmh SSW 4.9 mph7.9 kmh 30.30 in1026.1 mb 0.00 in0.0 mm 0.00 in/hr0.0 mm/hr 0.00 in0.0 mm
05:15 AM 18.1°F-7.7°C 16.9°F-8.4°C 95% 2.9 mph SW4.7 kmh SW 4.9 mph7.9 kmh 30.30 in1026.1 mb 0.00 in0.0 mm 0.00 in/hr0.0 mm/hr 0.00 in0.0 mm
05:10 AM 18.0°F-7.8°C 16.7°F-8.5°C 95% 2.9 mph SW4.7 kmh SW 4.0 mph6.4 kmh 30.30 in1026.1 mb 0.00 in0.0 mm 0.00 in/hr0.0 mm/hr 0.00 in0.0 mm
05:05 AM 17.8°F-7.9°C 16.5°F-8.6°C 95% 2.9 mph SSW4.7 kmh SSW 4.9 mph7.9 kmh 30.30 in1026.1 mb 0.00 in0.0 mm 0.00 in/hr0.0 mm/hr 0.00 in0.0 mm
05:00 AM 17.8°F-7.9°C 16.5°F-8.6°C 95% 2.9 mph SW4.7 kmh SW 4.9 mph7.9 kmh 30.30 in1026.1 mb 0.00 in0.0 mm 0.00 in/hr0.0 mm/hr 0.00 in0.0 mm
04:55 AM 17.6°F-8.0°C 16.3°F-8.7°C 95% 2.0 mph SW3.2 kmh SW 4.9 mph7.9 kmh 30.29 in1025.7 mb 0.00 in0.0 mm 0.00 in/hr0.0 mm/hr 0.00 in0.0 mm
04:50 AM 17.4°F-8.1°C 16.0°F-8.9°C 94% 2.0 mph SW3.2 kmh SW 4.9 mph7.9 kmh 30.29 in1025.7 mb 0.00 in0.0 mm 0.00 in/hr0.0 mm/hr 0.00 in0.0 mm
04:45 AM 17.4°F-8.1°C 16.0°F-8.9°C 94% 2.0 mph SW3.2 kmh SW 4.0 mph6.4 kmh 30.30 in1026.1 mb 0.00 in0.0 mm 0.00 in/hr0.0 mm/hr 0.00 in0.0 mm
04:40 AM 17.4°F-8.1°C 16.0°F-8.9°C 94% 2.0 mph SW3.2 kmh SW 4.0 mph6.4 kmh 30.30 in1026.1 mb 0.00 in0.0 mm 0.00 in/hr0.0 mm/hr 0.00 in0.0 mm
04:35 AM 17.4°F-8.1°C 16.0°F-8.9°C 94% 2.0 mph WSW3.2 kmh WSW 2.9 mph4.7 kmh 30.30 in1026.1 mb 0.00 in0.0 mm 0.00 in/hr0.0 mm/hr 0.00 in0.0 mm
04:30 AM 17.4°F-8.1°C 16.0°F-8.9°C 94% 2.0 mph SW3.2 kmh SW 2.9 mph4.7 kmh 30.30 in1026.1 mb 0.00 in0.0 mm 0.00 in/hr0.0 mm/hr 0.00 in0.0 mm
04:25 AM 17.4°F-8.1°C 15.8°F-9.0°C 93% 2.0 mph SW3.2 kmh SW 2.9 mph4.7 kmh 30.30 in1026.1 mb 0.00 in0.0 mm 0.00 in/hr0.0 mm/hr 0.00 in0.0 mm
04:20 AM 17.8°F-7.9°C 16.3°F-8.7°C 94% 0.9 mph SW1.4 kmh SW 2.0 mph3.2 kmh 30.30 in1026.1 mb 0.00 in0.0 mm 0.00 in/hr0.0 mm/hr 0.00 in0.0 mm
04:15 AM 17.8°F-7.9°C 16.3°F-8.7°C 94% 0.9 mph SW1.4 kmh SW 2.0 mph3.2 kmh 30.30 in1026.1 mb 0.00 in0.0 mm 0.00 in/hr0.0 mm/hr 0.00 in0.0 mm
04:10 AM 18.0°F-7.8°C 16.5°F-8.6°C 94% 0.9 mph SW1.4 kmh SW 2.0 mph3.2 kmh 30.31 in1026.4 mb 0.00 in0.0 mm 0.00 in/hr0.0 mm/hr 0.00 in0.0 mm
04:05 AM 18.0°F-7.8°C 16.3°F-8.7°C 93% 0.9 mph SW1.4 kmh SW 2.0 mph3.2 kmh 30.30 in1026.1 mb 0.00 in0.0 mm 0.00 in/hr0.0 mm/hr 0.00 in0.0 mm
04:00 AM 18.0°F-7.8°C 16.3°F-8.7°C 93% 0.9 mph SW1.4 kmh SW 2.0 mph3.2 kmh 30.31 in1026.4 mb 0.00 in0.0 mm 0.00 in/hr0.0 mm/hr 0.00 in0.0 mm
03:55 AM 18.1°F-7.7°C 16.5°F-8.6°C 93% 0.9 mph SW1.4 kmh SW 2.0 mph3.2 kmh 30.31 in1026.4 mb 0.00 in0.0 mm 0.00 in/hr0.0 mm/hr 0.00 in0.0 mm
03:50 AM 18.3°F-7.6°C 16.7°F-8.5°C 93% 2.0 mph SW3.2 kmh SW 2.9 mph4.7 kmh 30.31 in1026.4 mb 0.00 in0.0 mm 0.00 in/hr0.0 mm/hr 0.00 in0.0 mm
03:45 AM 18.3°F-7.6°C 16.7°F-8.5°C 93% 2.0 mph SW3.2 kmh SW 2.9 mph4.7 kmh 30.31 in1026.4 mb 0.00 in0.0 mm 0.00 in/hr0.0 mm/hr 0.00 in0.0 mm
03:40 AM 18.7°F-7.4°C 17.1°F-8.3°C 93% 0.9 mph SW1.4 kmh SW 3.0 mph4.8 kmh 30.31 in1026.4 mb 0.00 in0.0 mm 0.00 in/hr0.0 mm/hr 0.00 in0.0 mm
03:35 AM 18.9°F-7.3°C 16.9°F-8.4°C 92% 0.9 mph SW1.4 kmh SW 2.0 mph3.2 kmh 30.31 in1026.4 mb 0.00 in0.0 mm 0.00 in/hr0.0 mm/hr 0.00 in0.0 mm
03:30 AM 19.0°F-7.2°C 17.1°F-8.3°C 92% 0.9 mph SW1.4 kmh SW 2.0 mph3.2 kmh 30.31 in1026.4 mb 0.00 in0.0 mm 0.00 in/hr0.0 mm/hr 0.00 in0.0 mm
03:25 AM 19.6°F-6.9°C 17.6°F-8.0°C 92% 0.9 mph SW1.4 kmh SW 2.0 mph3.2 kmh 30.31 in1026.4 mb 0.00 in0.0 mm 0.00 in/hr0.0 mm/hr 0.00 in0.0 mm
03:20 AM 19.8°F-6.8°C 17.8°F-7.9°C 92% 0.9 mph SW1.4 kmh SW 2.0 mph3.2 kmh 30.31 in1026.4 mb 0.00 in0.0 mm 0.00 in/hr0.0 mm/hr 0.00 in0.0 mm
03:15 AM 20.1°F-6.6°C 18.1°F-7.7°C 92% 0.9 mph SW1.4 kmh SW 2.0 mph3.2 kmh 30.32 in1026.8 mb 0.00 in0.0 mm 0.00 in/hr0.0 mm/hr 0.00 in0.0 mm
03:10 AM 20.5°F-6.4°C 18.5°F-7.5°C 92% 0.9 mph SW1.4 kmh SW 2.0 mph3.2 kmh 30.31 in1026.4 mb 0.00 in0.0 mm 0.00 in/hr0.0 mm/hr 0.00 in0.0 mm
03:05 AM 20.8°F-6.2°C 18.9°F-7.3°C 92% 0.9 mph SW1.4 kmh SW 0.9 mph1.4 kmh 30.32 in1026.8 mb 0.00 in0.0 mm 0.00 in/hr0.0 mm/hr 0.00 in0.0 mm
03:00 AM 21.0°F-6.1°C 19.0°F-7.2°C 92% 0.9 mph SW1.4 kmh SW 2.0 mph3.2 kmh 30.31 in1026.4 mb 0.00 in0.0 mm 0.00 in/hr0.0 mm/hr 0.00 in0.0 mm
02:55 AM 21.4°F-5.9°C 19.4°F-7.0°C 92% 0.9 mph SW1.4 kmh SW 2.0 mph3.2 kmh 30.31 in1026.4 mb 0.00 in0.0 mm 0.00 in/hr0.0 mm/hr 0.00 in0.0 mm
02:50 AM 21.4°F-5.9°C 19.4°F-7.0°C 92% 0.9 mph SW1.4 kmh SW 3.0 mph4.8 kmh 30.32 in1026.8 mb 0.00 in0.0 mm 0.00 in/hr0.0 mm/hr 0.00 in0.0 mm
02:45 AM 21.6°F-5.8°C 19.6°F-6.9°C 92% 0.9 mph SW1.4 kmh SW 2.0 mph3.2 kmh 30.32 in1026.8 mb 0.00 in0.0 mm 0.00 in/hr0.0 mm/hr 0.00 in0.0 mm
02:40 AM 21.7°F-5.7°C 20.1°F-6.6°C 93% 2.0 mph SW3.2 kmh SW 2.9 mph4.7 kmh 30.32 in1026.8 mb 0.00 in0.0 mm 0.00 in/hr0.0 mm/hr 0.00 in0.0 mm
02:35 AM 21.7°F-5.7°C 20.1°F-6.6°C 93% 2.0 mph SW3.2 kmh SW 4.0 mph6.4 kmh 30.31 in1026.4 mb 0.00 in0.0 mm 0.00 in/hr0.0 mm/hr 0.00 in0.0 mm
02:30 AM 21.6°F-5.8°C 19.9°F-6.7°C 93% 2.0 mph SW3.2 kmh SW 2.9 mph4.7 kmh 30.31 in1026.4 mb 0.00 in0.0 mm 0.00 in/hr0.0 mm/hr 0.00 in0.0 mm
02:25 AM 21.6°F-5.8°C 20.1°F-6.6°C 94% 2.0 mph SW3.2 kmh SW 4.0 mph6.4 kmh 30.31 in1026.4 mb 0.00 in0.0 mm 0.00 in/hr0.0 mm/hr 0.00 in0.0 mm
02:20 AM 21.4°F-5.9°C 19.9°F-6.7°C 94% 2.0 mph SW3.2 kmh SW 4.0 mph6.4 kmh 30.31 in1026.4 mb 0.00 in0.0 mm 0.00 in/hr0.0 mm/hr 0.00 in0.0 mm
02:15 AM 21.2°F-6.0°C 19.8°F-6.8°C 94% 2.0 mph SW3.2 kmh SW 4.0 mph6.4 kmh 30.31 in1026.4 mb 0.00 in0.0 mm 0.00 in/hr0.0 mm/hr 0.00 in0.0 mm
02:10 AM 20.8°F-6.2°C 19.4°F-7.0°C 94% 2.0 mph SW3.2 kmh SW 4.0 mph6.4 kmh 30.31 in1026.4 mb 0.00 in0.0 mm 0.00 in/hr0.0 mm/hr 0.00 in0.0 mm
02:05 AM 20.7°F-6.3°C 19.2°F-7.1°C 94% 0.9 mph SW1.4 kmh SW 2.9 mph4.7 kmh 30.31 in1026.4 mb 0.00 in0.0 mm 0.00 in/hr0.0 mm/hr 0.00 in0.0 mm
02:00 AM 20.7°F-6.3°C 19.2°F-7.1°C 94% 0.9 mph SW1.4 kmh SW 2.9 mph4.7 kmh 30.31 in1026.4 mb 0.00 in0.0 mm 0.00 in/hr0.0 mm/hr 0.00 in0.0 mm
01:55 AM 20.5°F-6.4°C 19.0°F-7.2°C 94% 0.9 mph SW1.4 kmh SW 2.0 mph3.2 kmh 30.31 in1026.4 mb 0.00 in0.0 mm 0.00 in/hr0.0 mm/hr 0.00 in0.0 mm
01:50 AM 20.3°F-6.5°C 18.9°F-7.3°C 94% 0.9 mph SW1.4 kmh SW 2.0 mph3.2 kmh 30.31 in1026.4 mb 0.00 in0.0 mm 0.00 in/hr0.0 mm/hr 0.00 in0.0 mm
01:45 AM 20.1°F-6.6°C 18.7°F-7.4°C 94% 0.9 mph SW1.4 kmh SW 2.0 mph3.2 kmh 30.31 in1026.4 mb 0.00 in0.0 mm 0.00 in/hr0.0 mm/hr 0.00 in0.0 mm
01:40 AM 20.1°F-6.6°C 18.7°F-7.4°C 94% 0.9 mph SW1.4 kmh SW 2.9 mph4.7 kmh 30.31 in1026.4 mb 0.00 in0.0 mm 0.00 in/hr0.0 mm/hr 0.00 in0.0 mm
01:35 AM 19.9°F-6.7°C 18.5°F-7.5°C 94% 0.9 mph SW1.4 kmh SW 2.9 mph4.7 kmh 30.31 in1026.4 mb 0.00 in0.0 mm 0.00 in/hr0.0 mm/hr 0.00 in0.0 mm
01:30 AM 19.9°F-6.7°C 18.5°F-7.5°C 94% 0.9 mph SW1.4 kmh SW 2.9 mph4.7 kmh 30.30 in1026.1 mb 0.00 in0.0 mm 0.00 in/hr0.0 mm/hr 0.00 in0.0 mm
01:25 AM 19.8°F-6.8°C 18.1°F-7.7°C 93% 2.0 mph SW3.2 kmh SW 2.9 mph4.7 kmh 30.30 in1026.1 mb 0.00 in0.0 mm 0.00 in/hr0.0 mm/hr 0.00 in0.0 mm
01:20 AM 19.8°F-6.8°C 18.1°F-7.7°C 93% 0.9 mph SW1.4 kmh SW 2.9 mph4.7 kmh 30.30 in1026.1 mb 0.00 in0.0 mm 0.00 in/hr0.0 mm/hr 0.00 in0.0 mm
01:15 AM 19.9°F-6.7°C 18.3°F-7.6°C 93% 0.9 mph SW1.4 kmh SW 2.0 mph3.2 kmh 30.31 in1026.4 mb 0.00 in0.0 mm 0.00 in/hr0.0 mm/hr 0.00 in0.0 mm
01:10 AM 20.1°F-6.6°C 18.5°F-7.5°C 93% 0.9 mph SW1.4 kmh SW 2.0 mph3.2 kmh 30.30 in1026.1 mb 0.00 in0.0 mm 0.00 in/hr0.0 mm/hr 0.00 in0.0 mm
01:05 AM 20.5°F-6.4°C 18.9°F-7.3°C 93% 0.9 mph SW1.4 kmh SW 2.0 mph3.2 kmh 30.30 in1026.1 mb 0.00 in0.0 mm 0.00 in/hr0.0 mm/hr 0.00 in0.0 mm
01:00 AM 20.8°F-6.2°C 19.2°F-7.1°C 93% Calm Calm 2.0 mph3.2 kmh 30.30 in1026.1 mb 0.00 in0.0 mm 0.00 in/hr0.0 mm/hr 0.00 in0.0 mm
12:55 AM 21.0°F-6.1°C 19.4°F-7.0°C 93% 0.9 mph SW1.4 kmh SW 2.0 mph3.2 kmh 30.31 in1026.4 mb 0.00 in0.0 mm 0.00 in/hr0.0 mm/hr 0.00 in0.0 mm
12:50 AM 21.4°F-5.9°C 19.8°F-6.8°C 93% 0.9 mph SW1.4 kmh SW 2.0 mph3.2 kmh 30.31 in1026.4 mb 0.00 in0.0 mm 0.00 in/hr0.0 mm/hr 0.00 in0.0 mm
12:45 AM 21.6°F-5.8°C 19.9°F-6.7°C 93% 0.9 mph SW1.4 kmh SW 2.0 mph3.2 kmh 30.31 in1026.4 mb 0.00 in0.0 mm 0.00 in/hr0.0 mm/hr 0.00 in0.0 mm
12:40 AM 21.7°F-5.7°C 20.1°F-6.6°C 93% 0.9 mph SW1.4 kmh SW 2.0 mph3.2 kmh 30.31 in1026.4 mb 0.00 in0.0 mm 0.00 in/hr0.0 mm/hr 0.00 in0.0 mm
12:35 AM 21.7°F-5.7°C 20.3°F-6.5°C 94% 0.9 mph SW1.4 kmh SW 2.0 mph3.2 kmh 30.30 in1026.1 mb 0.00 in0.0 mm 0.00 in/hr0.0 mm/hr 0.00 in0.0 mm
12:30 AM 21.7°F-5.7°C 20.3°F-6.5°C 94% 0.9 mph WSW1.4 kmh WSW 2.0 mph3.2 kmh 30.30 in1026.1 mb 0.00 in0.0 mm 0.00 in/hr0.0 mm/hr 0.00 in0.0 mm
12:25 AM 21.7°F-5.7°C 20.5°F-6.4°C 95% 0.9 mph SSW1.4 kmh SSW 2.0 mph3.2 kmh 30.31 in1026.4 mb 0.00 in0.0 mm 0.00 in/hr0.0 mm/hr 0.00 in0.0 mm
12:20 AM 21.4°F-5.9°C 19.9°F-6.7°C 94% 0.9 mph SSW1.4 kmh SSW 2.9 mph4.7 kmh 30.31 in1026.4 mb 0.00 in0.0 mm 0.00 in/hr0.0 mm/hr 0.00 in0.0 mm
12:15 AM 21.0°F-6.1°C 19.6°F-6.9°C 94% Calm Calm 2.9 mph4.7 kmh 30.31 in1026.4 mb 0.00 in0.0 mm 0.00 in/hr0.0 mm/hr 0.00 in0.0 mm
12:10 AM 21.0°F-6.1°C 19.6°F-6.9°C 94% Calm Calm 0.9 mph1.4 kmh 30.31 in1026.4 mb 0.00 in0.0 mm 0.00 in/hr0.0 mm/hr 0.00 in0.0 mm
12:05 AM 21.0°F-6.1°C 19.6°F-6.9°C 94% Calm Calm 0.9 mph1.4 kmh 30.31 in1026.4 mb 0.00 in0.0 mm 0.00 in/hr0.0 mm/hr 0.00 in0.0 mm
12:00 AM 20.8°F-6.2°C 19.6°F-6.9°C 95% Calm Calm 2.0 mph3.2 kmh 30.31 in1026.4 mb 0.00 in0.0 mm 0.00 in/hr0.0 mm/hr 0.00 in0.0 mm